WetterOnline ( https://www.wetteronline.de )

Wetter aktuell Ludwigshafen

Aktuelles Wetter: Mannheim (100m)

6-stündlich | Neueste Meldungen
Ortszeit Temperatur Wetter
Di, 28.05. 20:00 18.6° C fast wolkenlos
Di, 28.05. 14:00 17.8° C bedeckt
Di, 28.05. 8:00 13.3° C bedeckt
Di, 28.05. 2:00 14.0° C bedeckt
Mo, 27.05. 20:00 16.6° C bewölkt
Mo, 27.05. 14:00 21.6° C wolkig
Mo, 27.05. 8:00 16.4° C bewölkt
Mo, 27.05. 2:00 16.3° C bedeckt
Ortszeit Temperatur Wetter
Mi, 29.05. 0:00 15.8° C bedeckt
Di, 28.05. 23:50 15.8° C bedeckt
Di, 28.05. 23:40 16.3° C bedeckt
Di, 28.05. 23:30 16.9° C bedeckt
Di, 28.05. 23:20 16.9° C bedeckt
Di, 28.05. 23:10 16.9° C bedeckt
Di, 28.05. 23:00 17.0° C bedeckt
Di, 28.05. 22:30 16.9° C bedeckt
Di, 28.05. 22:00 16.8° C bedeckt
Di, 28.05. 21:30 17.4° C bedeckt
Di, 28.05. 21:00 17.5° C bewölkt
Ortszeit Relative Feuchte Sichtweite
Di, 28.05. 20:00 48% >70 km
Di, 28.05. 14:00 50% 45 km
Di, 28.05. 8:00 72% 65 km
Di, 28.05. 2:00 71% 55 km
Mo, 27.05. 20:00 83% 45 km
Mo, 27.05. 14:00 58% 65 km
Mo, 27.05. 8:00 85% 40 km
Mo, 27.05. 2:00 86% 30 km
Ortszeit Relative Feuchte Sichtweite
Mi, 29.05. 0:00 74% 60 km
Di, 28.05. 23:50 74% -
Di, 28.05. 23:40 69% -
Di, 28.05. 23:30 64% 55 km
Di, 28.05. 23:20 64% -
Di, 28.05. 23:10 63% -
Di, 28.05. 23:00 62% 60 km
Di, 28.05. 22:30 65% >70 km
Di, 28.05. 22:00 66% 30 km
Di, 28.05. 21:30 61% 60 km
Di, 28.05. 21:00 58% 65 km
Ortszeit Niederschlagsmenge Niederschlagsart
Di, 28.05. 20:00 0.0 l/m2 in 12 Std. -
Di, 28.05. 14:00 0.0 l/m2 in 6 Std. -
Di, 28.05. 8:00 0.1 l/m2 in 12 Std. Regen
Di, 28.05. 2:00 0.1 l/m2 in 6 Std. Regen
Mo, 27.05. 20:00 8 l/m2 in 12 Std. Regen
Mo, 27.05. 14:00 0.1 l/m2 in 6 Std. Regen
Mo, 27.05. 8:00 0.1 l/m2 in 12 Std. Regen
Mo, 27.05. 2:00 0.0 l/m2 in 6 Std. -
Ortszeit Niederschlagsmenge Niederschlagsart
Mi, 29.05. 0:00 0.0 l/m2 in 1 Std. -
Di, 28.05. 23:50 keine Meldung -
Di, 28.05. 23:40 keine Meldung -
Di, 28.05. 23:30 0.0 l/m2 in 30 Min -
Di, 28.05. 23:20 keine Meldung -
Di, 28.05. 23:10 keine Meldung -
Di, 28.05. 23:00 0.0 l/m2 in 1 Std. -
Di, 28.05. 22:30 0.0 l/m2 in 30 Min -
Di, 28.05. 22:00 0.0 l/m2 in 1 Std. -
Di, 28.05. 21:30 0.0 l/m2 in 30 Min -
Di, 28.05. 21:00 0.0 l/m2 in 1 Std. -
Ortszeit Stärke Spitze Richtung
km/h Bft. km/h Grad Sektor
Di, 28.05. 20:00 11 2 25 170° S
Di, 28.05. 14:00 7 2 29 240° SW
Di, 28.05. 8:00 11 2 22 240° SW
Di, 28.05. 2:00 9 2 24 230° SW
Mo, 27.05. 20:00 7 2 47 360° N
Mo, 27.05. 14:00 7 2 22 150° SO
Mo, 27.05. 8:00 9 2 15 140° SO
Mo, 27.05. 2:00 7 2 20 150° SO
Ortszeit Stärke Spitze Richtung
km/h Bft. km/h Grad Sektor
Mi, 29.05. 0:00 6 1 11 160° S
Di, 28.05. 23:50 6 1 - 160° S
Di, 28.05. 23:40 7 2 - 150° SO
Di, 28.05. 23:30 7 2 11 150° SO
Di, 28.05. 23:20 7 2 - 150° SO
Di, 28.05. 23:10 7 2 - 140° SO
Di, 28.05. 23:00 7 2 11 140° SO
Di, 28.05. 22:30 7 2 11 140° SO
Di, 28.05. 22:00 7 2 11 150° SO
Di, 28.05. 21:30 7 2 11 150° SO
Di, 28.05. 21:00 7 2 18 160° S
Ortszeit Untergrenze Bedeckung Gattung
total tief tief mittel hoch
Di, 28.05. 20:00 2400 m 1/8 1/8 - - -
Di, 28.05. 14:00 1500 m 8/8 8/8 - - -
Di, 28.05. 8:00 2100 m 8/8 8/8 - - -
Di, 28.05. 2:00 2100 m 8/8 8/8 - - -
Mo, 27.05. 20:00 2100 m 8/8 5/8 - - -
Mo, 27.05. 14:00 1800 m 7/8 1/8 - - -
Mo, 27.05. 8:00 1800 m 8/8 6/8 - - -
Mo, 27.05. 2:00 3300 m 8/8 8/8 - - -
Ortszeit Bedeckungsgrad in Achtel und Wolkenuntergrenze
Mi, 29.05. 0:00 7(1800m) 8(2400m)
Di, 28.05. 23:50 7(1800m) 8(2400m)
Di, 28.05. 23:40 8
Di, 28.05. 23:30 8(1500m) 8(2100m)
Di, 28.05. 23:20 8(1500m) 8(2100m)
Di, 28.05. 23:10 8
Di, 28.05. 23:00 8(1800m)
Di, 28.05. 22:30 8(1800m)
Di, 28.05. 22:00 8(2100m)
Di, 28.05. 21:30 8(2100m)
Di, 28.05. 21:00 6(2100m) 7(2700m) 7(8400m)
Ortszeit Luftdruck NN (hPa) Tendenz (hPa in 3 Std.)
Di, 28.05. 20:00 1018 - 0,9
Di, 28.05. 14:00 1021 - 0,7
Di, 28.05. 8:00 1021 + 1,1
Di, 28.05. 2:00 1019 + 1,2
Mo, 27.05. 20:00 1016 + 0,2
Mo, 27.05. 14:00 1017 - 1,4
Mo, 27.05. 8:00 1019 + 0,6
Mo, 27.05. 2:00 1018 + 0,4
Ortszeit Luftdruck NN (hPa) Tendenz (hPa in 3 Std.)
Mi, 29.05. 0:00 1018 - 0,1
Di, 28.05. 23:50 1018 keine Meldung
Di, 28.05. 23:40 1018 keine Meldung
Di, 28.05. 23:30 1018 - 0,1
Di, 28.05. 23:20 1018 keine Meldung
Di, 28.05. 23:10 1018 keine Meldung
Di, 28.05. 23:00 1018 0,0
Di, 28.05. 22:30 1018 0,0
Di, 28.05. 22:00 1018 - 0,2
Di, 28.05. 21:30 1018 - 0,6
Di, 28.05. 21:00 1018 - 0,8
Ortszeit Schneehöhe (cm)
Di, 28.05. 20:00 0
Di, 28.05. 14:00 0
Di, 28.05. 8:00 0
Di, 28.05. 2:00 0
Mo, 27.05. 20:00 0
Mo, 27.05. 14:00 0
Mo, 27.05. 8:00 0
Mo, 27.05. 2:00 0
Ortszeit Schneehöhe (cm)
Mi, 29.05. 0:00 0
Di, 28.05. 23:50 0
Di, 28.05. 23:40 -
Di, 28.05. 23:30 0
Di, 28.05. 23:20 0
Di, 28.05. 23:10 -
Di, 28.05. 23:00 0
Di, 28.05. 22:30 0
Di, 28.05. 22:00 0
Di, 28.05. 21:30 0
Di, 28.05. 21:00 0
Link zu dieser Seite / Seite empfehlen

Das Wetter in ...